Big Piney River (Missouri), Fort Leonard Wood (06930060)

StateMissouriLatestGood (734 cfs)
RiverBig Piney RiverRatingObservedEstimated
Updated2021-03-03 14:00 (1 hour ago)Flood - The river is flooding. Obstacles can be treacherous or deadly. The river should be avoided at this stage for casual trips and definitely for the inexperienced. Trips should be attempted only with protective gear and equipment.Flood(none)3337
Discharge734 cfs (median: 556 cfs)High - The river is high and potentially dangerous, especially for the young and / or inexperienced. Normal stream obstacles are sometimes difficult to navigate. Extended distances can be attempted, but canoe travel may not be advisable.High(none)1572
Height3.16 feetGood - Conditions are ideal for a canoe or kayak. Boats typically will drag on fewer than one-quarter of riffles, if at all, and portages are unnecessary or rare. Normal float lengths can be attempted without a problem.Good(none)673
TrendRising (falling over 24 hours)Low - River is low but can still be floated. Some riffles are okay but most come with significant dragging and might need a portage. Float lengths should be reduced to accommodate low flow, dragging, and portages.Low(none)395
USGSExternal icon USGS Site (External icon Google Maps)Poor - River is too low to float comfortably. Most or all riffles will drag or must be portaged and some obstacles (such as slick shelf rock) cause undue problems. Avoid the river at this stage for casual paddling trips.Poor(none)208

Trending Data

Plot Image

Trips for Big Piney River (Missouri), Fort Leonard Wood (06930060)

DateStartEndDistanceConditionDischargeHeightFishingDetails

A total of 0 rows are displayed.

Condition Descriptions

Fishing Conditions

Fish Species

Notes

Classic Trip List

The classic River Trips application is still available for use. It is updated with the new system using a data retrofit. It is no longer maintained. The original River Trips application is no longer updated (as of 1 Dec 2016) but can be checked for errors or for the condition of the data before it was converted to the new system.

Gauge Data Table

ObservationHeightDischargeMaximum
Discharge
Minimum
Discharge
Mean
Discharge
P05P10P20P25P50
(Median)
P75P80P90P95
2021-03-03 14:00 3.16 734 1530 (2020) 169 (2006) 643 177 263 370 392 556 865 924 1180 1490
2021-03-03 13:00 3.13 718 1530 (2020) 169 (2006) 643 177 263 370 392 556 865 924 1180 1490
2021-03-03 12:00 3.12 713 1530 (2020) 169 (2006) 643 177 263 370 392 556 865 924 1180 1490
2021-03-03 11:00 3.14 723 1530 (2020) 169 (2006) 643 177 263 370 392 556 865 924 1180 1490
2021-03-03 10:00 3.10 702 1530 (2020) 169 (2006) 643 177 263 370 392 556 865 924 1180 1490
2021-03-03 09:00 3.12 713 1530 (2020) 169 (2006) 643 177 263 370 392 556 865 924 1180 1490
2021-03-03 08:00 3.13 718 1530 (2020) 169 (2006) 643 177 263 370 392 556 865 924 1180 1490
2021-03-03 07:00 3.17 739 1530 (2020) 169 (2006) 643 177 263 370 392 556 865 924 1180 1490
2021-03-03 05:45 3.15 728 1530 (2020) 169 (2006) 643 177 263 370 392 556 865 924 1180 1490
2021-03-03 05:00 3.17 739 1530 (2020) 169 (2006) 643 177 263 370 392 556 865 924 1180 1490
2021-03-03 04:00 3.19 750 1530 (2020) 169 (2006) 643 177 263 370 392 556 865 924 1180 1490
2021-03-03 03:00 3.15 728 1530 (2020) 169 (2006) 643 177 263 370 392 556 865 924 1180 1490
2021-03-03 02:00 3.17 739 1530 (2020) 169 (2006) 643 177 263 370 392 556 865 924 1180 1490
2021-03-03 01:00 3.20 755 1530 (2020) 169 (2006) 643 177 263 370 392 556 865 924 1180 1490
2021-03-03 00:00 3.19 750 1530 (2020) 169 (2006) 643 177 263 370 392 556 865 924 1180 1490
2021-03-02 23:00 3.22 766 1570 (2011) 172 (2006) 652 180 251 326 378 531 956 983 1420 1560
2021-03-02 22:00 3.20 755 1570 (2011) 172 (2006) 652 180 251 326 378 531 956 983 1420 1560
2021-03-02 21:00 3.20 755 1570 (2011) 172 (2006) 652 180 251 326 378 531 956 983 1420 1560
2021-03-02 19:00 3.23 772 1570 (2011) 172 (2006) 652 180 251 326 378 531 956 983 1420 1560
2021-03-02 18:00 3.21 761 1570 (2011) 172 (2006) 652 180 251 326 378 531 956 983 1420 1560
2021-03-02 17:00 3.22 766 1570 (2011) 172 (2006) 652 180 251 326 378 531 956 983 1420 1560
2021-03-02 16:00 3.21 761 1570 (2011) 172 (2006) 652 180 251 326 378 531 956 983 1420 1560
2021-03-02 15:00 3.23 772 1570 (2011) 172 (2006) 652 180 251 326 378 531 956 983 1420 1560
2021-03-02 14:00 3.27 794 1570 (2011) 172 (2006) 652 180 251 326 378 531 956 983 1420 1560
2021-03-02 13:00 3.23 772 1570 (2011) 172 (2006) 652 180 251 326 378 531 956 983 1420 1560
2021-03-02 12:00 3.28 799 1570 (2011) 172 (2006) 652 180 251 326 378 531 956 983 1420 1560
2021-03-02 11:00 3.29 805 1570 (2011) 172 (2006) 652 180 251 326 378 531 956 983 1420 1560
2021-03-02 10:00 3.28 799 1570 (2011) 172 (2006) 652 180 251 326 378 531 956 983 1420 1560
2021-03-02 09:00 3.28 799 1570 (2011) 172 (2006) 652 180 251 326 378 531 956 983 1420 1560
2021-03-02 08:00 3.29 805 1570 (2011) 172 (2006) 652 180 251 326 378 531 956 983 1420 1560
2021-03-02 07:00 3.33 828 1570 (2011) 172 (2006) 652 180 251 326 378 531 956 983 1420 1560
2021-03-02 05:45 3.31 817 1570 (2011) 172 (2006) 652 180 251 326 378 531 956 983 1420 1560
2021-03-02 05:00 3.34 834 1570 (2011) 172 (2006) 652 180 251 326 378 531 956 983 1420 1560
2021-03-02 04:00 3.30 811 1570 (2011) 172 (2006) 652 180 251 326 378 531 956 983 1420 1560
2021-03-02 03:00 3.33 828 1570 (2011) 172 (2006) 652 180 251 326 378 531 956 983 1420 1560
2021-03-02 02:00 3.33 828 1570 (2011) 172 (2006) 652 180 251 326 378 531 956 983 1420 1560
2021-03-02 01:00 3.29 805 1570 (2011) 172 (2006) 652 180 251 326 378 531 956 983 1420 1560
2021-03-02 00:00 3.27 794 1570 (2011) 172 (2006) 652 180 251 326 378 531 956 983 1420 1560
2021-03-01 23:00 3.31 817 1990 (2013) 173 (2006) 722 180 245 322 354 557 1030 1110 1680 1960
2021-03-01 22:00 3.29 805 1990 (2013) 173 (2006) 722 180 245 322 354 557 1030 1110 1680 1960
2021-03-01 21:00 3.30 811 1990 (2013) 173 (2006) 722 180 245 322 354 557 1030 1110 1680 1960
2021-03-01 20:00 3.30 811 1990 (2013) 173 (2006) 722 180 245 322 354 557 1030 1110 1680 1960
2021-03-01 19:00 3.27 794 1990 (2013) 173 (2006) 722 180 245 322 354 557 1030 1110 1680 1960
2021-03-01 18:00 3.26 788 1990 (2013) 173 (2006) 722 180 245 322 354 557 1030 1110 1680 1960
2021-03-01 17:00 3.25 783 1990 (2013) 173 (2006) 722 180 245 322 354 557 1030 1110 1680 1960
2021-03-01 16:00 3.24 777 1990 (2013) 173 (2006) 722 180 245 322 354 557 1030 1110 1680 1960
2021-03-01 15:00 3.22 766 1990 (2013) 173 (2006) 722 180 245 322 354 557 1030 1110 1680 1960
2021-03-01 14:00 3.16 734 1990 (2013) 173 (2006) 722 180 245 322 354 557 1030 1110 1680 1960
2021-03-01 13:00 3.15 728 1990 (2013) 173 (2006) 722 180 245 322 354 557 1030 1110 1680 1960
2021-03-01 12:00 3.11 708 1990 (2013) 173 (2006) 722 180 245 322 354 557 1030 1110 1680 1960
2021-03-01 11:00 3.08 692 1990 (2013) 173 (2006) 722 180 245 322 354 557 1030 1110 1680 1960
2021-03-01 10:00 3.10 702 1990 (2013) 173 (2006) 722 180 245 322 354 557 1030 1110 1680 1960
2021-03-01 09:00 3.10 702 1990 (2013) 173 (2006) 722 180 245 322 354 557 1030 1110 1680 1960
2021-03-01 08:00 3.10 702 1990 (2013) 173 (2006) 722 180 245 322 354 557 1030 1110 1680 1960
2021-03-01 07:00 3.10 702 1990 (2013) 173 (2006) 722 180 245 322 354 557 1030 1110 1680 1960
2021-03-01 06:00 3.05 677 1990 (2013) 173 (2006) 722 180 245 322 354 557 1030 1110 1680 1960
2021-03-01 05:00 3.03 667 1990 (2013) 173 (2006) 722 180 245 322 354 557 1030 1110 1680 1960
2021-03-01 04:00 3.05 677 1990 (2013) 173 (2006) 722 180 245 322 354 557 1030 1110 1680 1960
2021-03-01 03:00 3.07 687 1990 (2013) 173 (2006) 722 180 245 322 354 557 1030 1110 1680 1960
2021-03-01 02:00 3.07 687 1990 (2013) 173 (2006) 722 180 245 322 354 557 1030 1110 1680 1960
2021-03-01 01:00 3.08 692 1990 (2013) 173 (2006) 722 180 245 322 354 557 1030 1110 1680 1960
2021-03-01 00:00 3.02 662 1990 (2013) 173 (2006) 722 180 245 322 354 557 1030 1110 1680 1960
2021-02-28 23:00 3.05 677 2900 (2013) 174 (2006) 839 181 242 319 376 595 1240 1310 1920 2810
2021-02-28 22:00 3.05 677 2900 (2013) 174 (2006) 839 181 242 319 376 595 1240 1310 1920 2810
2021-02-28 21:00 3.02 662 2900 (2013) 174 (2006) 839 181 242 319 376 595 1240 1310 1920 2810
2021-02-28 20:00 3.08 692 2900 (2013) 174 (2006) 839 181 242 319 376 595 1240 1310 1920 2810
2021-02-28 19:00 3.04 672 2900 (2013) 174 (2006) 839 181 242 319 376 595 1240 1310 1920 2810
2021-02-28 18:00 3.07 687 2900 (2013) 174 (2006) 839 181 242 319 376 595 1240 1310 1920 2810
2021-02-28 17:00 3.05 677 2900 (2013) 174 (2006) 839 181 242 319 376 595 1240 1310 1920 2810
2021-02-28 16:00 3.07 687 2900 (2013) 174 (2006) 839 181 242 319 376 595 1240 1310 1920 2810
2021-02-28 15:00 3.05 677 2900 (2013) 174 (2006) 839 181 242 319 376 595 1240 1310 1920 2810
2021-02-28 14:00 3.05 677 2900 (2013) 174 (2006) 839 181 242 319 376 595 1240 1310 1920 2810
2021-02-28 13:00 3.06 682 2900 (2013) 174 (2006) 839 181 242 319 376 595 1240 1310 1920 2810
2021-02-28 12:00 3.07 687 2900 (2013) 174 (2006) 839 181 242 319 376 595 1240 1310 1920 2810
2021-02-28 11:00 3.06 682 2900 (2013) 174 (2006) 839 181 242 319 376 595 1240 1310 1920 2810
2021-02-28 10:00 3.04 672 2900 (2013) 174 (2006) 839 181 242 319 376 595 1240 1310 1920 2810
2021-02-28 09:00 3.04 672 2900 (2013) 174 (2006) 839 181 242 319 376 595 1240 1310 1920 2810
2021-02-28 08:00 3.03 667 2900 (2013) 174 (2006) 839 181 242 319 376 595 1240 1310 1920 2810
2021-02-28 07:00 3.10 702 2900 (2013) 174 (2006) 839 181 242 319 376 595 1240 1310 1920 2810
2021-02-28 06:00 3.07 687 2900 (2013) 174 (2006) 839 181 242 319 376 595 1240 1310 1920 2810
2021-02-28 05:00 3.02 662 2900 (2013) 174 (2006) 839 181 242 319 376 595 1240 1310 1920 2810
2021-02-28 04:00 3.07 687 2900 (2013) 174 (2006) 839 181 242 319 376 595 1240 1310 1920 2810
2021-02-28 03:00 3.08 692 2900 (2013) 174 (2006) 839 181 242 319 376 595 1240 1310 1920 2810
2021-02-28 02:00 3.07 687 2900 (2013) 174 (2006) 839 181 242 319 376 595 1240 1310 1920 2810
2021-02-28 01:00 3.04 672 2900 (2013) 174 (2006) 839 181 242 319 376 595 1240 1310 1920 2810
2021-02-28 00:00 3.07 687 2900 (2013) 174 (2006) 839 181 242 319 376 595 1240 1310 1920 2810
2021-02-27 23:00 3.04 672 6490 (2013) 175 (2006) 1110 182 247 317 395 583 1450 1550 2710 6130
2021-02-27 22:00 3.06 682 6490 (2013) 175 (2006) 1110 182 247 317 395 583 1450 1550 2710 6130
2021-02-27 21:00 3.06 682 6490 (2013) 175 (2006) 1110 182 247 317 395 583 1450 1550 2710 6130
2021-02-27 20:00 3.04 672 6490 (2013) 175 (2006) 1110 182 247 317 395 583 1450 1550 2710 6130
2021-02-27 19:00 3.04 672 6490 (2013) 175 (2006) 1110 182 247 317 395 583 1450 1550 2710 6130
2021-02-27 18:00 3.04 672 6490 (2013) 175 (2006) 1110 182 247 317 395 583 1450 1550 2710 6130
2021-02-27 17:00 3.03 667 6490 (2013) 175 (2006) 1110 182 247 317 395 583 1450 1550 2710 6130
2021-02-27 16:00 3.05 677 6490 (2013) 175 (2006) 1110 182 247 317 395 583 1450 1550 2710 6130
2021-02-27 15:00 3.08 692 6490 (2013) 175 (2006) 1110 182 247 317 395 583 1450 1550 2710 6130
2021-02-27 14:00 3.07 687 6490 (2013) 175 (2006) 1110 182 247 317 395 583 1450 1550 2710 6130
2021-02-27 13:00 3.08 692 6490 (2013) 175 (2006) 1110 182 247 317 395 583 1450 1550 2710 6130
2021-02-27 12:00 3.08 692 6490 (2013) 175 (2006) 1110 182 247 317 395 583 1450 1550 2710 6130
2021-02-27 11:00 3.10 702 6490 (2013) 175 (2006) 1110 182 247 317 395 583 1450 1550 2710 6130
2021-02-27 10:00 3.08 692 6490 (2013) 175 (2006) 1110 182 247 317 395 583 1450 1550 2710 6130
2021-02-27 09:00 3.07 687 6490 (2013) 175 (2006) 1110 182 247 317 395 583 1450 1550 2710 6130
2021-02-27 08:00 3.07 687 6490 (2013) 175 (2006) 1110 182 247 317 395 583 1450 1550 2710 6130
2021-02-27 07:00 3.06 682 6490 (2013) 175 (2006) 1110 182 247 317 395 583 1450 1550 2710 6130
2021-02-27 06:00 3.10 702 6490 (2013) 175 (2006) 1110 182 247 317 395 583 1450 1550 2710 6130
2021-02-27 05:00 3.11 708 6490 (2013) 175 (2006) 1110 182 247 317 395 583 1450 1550 2710 6130
2021-02-27 04:00 3.08 692 6490 (2013) 175 (2006) 1110 182 247 317 395 583 1450 1550 2710 6130
2021-02-27 03:00 3.13 718 6490 (2013) 175 (2006) 1110 182 247 317 395 583 1450 1550 2710 6130
2021-02-27 02:00 3.13 718 6490 (2013) 175 (2006) 1110 182 247 317 395 583 1450 1550 2710 6130
2021-02-27 01:00 3.11 708 6490 (2013) 175 (2006) 1110 182 247 317 395 583 1450 1550 2710 6130
2021-02-27 00:00 3.17 739 6490 (2013) 175 (2006) 1110 182 247 317 395 583 1450 1550 2710 6130
2021-02-26 23:00 3.15 728 14500 (2001) 176 (2006) 1700 183 251 272 350 599 1660 2010 5260 13700
2021-02-26 22:00 3.13 718 14500 (2001) 176 (2006) 1700 183 251 272 350 599 1660 2010 5260 13700
2021-02-26 21:00 3.16 734 14500 (2001) 176 (2006) 1700 183 251 272 350 599 1660 2010 5260 13700
2021-02-26 20:00 3.12 713 14500 (2001) 176 (2006) 1700 183 251 272 350 599 1660 2010 5260 13700
2021-02-26 19:00 3.21 761 14500 (2001) 176 (2006) 1700 183 251 272 350 599 1660 2010 5260 13700
2021-02-26 18:00 3.16 734 14500 (2001) 176 (2006) 1700 183 251 272 350 599 1660 2010 5260 13700
2021-02-26 17:00 3.17 739 14500 (2001) 176 (2006) 1700 183 251 272 350 599 1660 2010 5260 13700
2021-02-26 16:00 3.20 755 14500 (2001) 176 (2006) 1700 183 251 272 350 599 1660 2010 5260 13700
2021-02-26 15:00 3.21 761 14500 (2001) 176 (2006) 1700 183 251 272 350 599 1660 2010 5260 13700
2021-02-26 14:00 3.22 766 14500 (2001) 176 (2006) 1700 183 251 272 350 599 1660 2010 5260 13700
2021-02-26 13:00 3.20 755 14500 (2001) 176 (2006) 1700 183 251 272 350 599 1660 2010 5260 13700
2021-02-26 12:00 3.22 766 14500 (2001) 176 (2006) 1700 183 251 272 350 599 1660 2010 5260 13700
2021-02-26 11:00 3.19 750 14500 (2001) 176 (2006) 1700 183 251 272 350 599 1660 2010 5260 13700
2021-02-26 10:00 3.22 766 14500 (2001) 176 (2006) 1700 183 251 272 350 599 1660 2010 5260 13700
2021-02-26 09:00 3.23 772 14500 (2001) 176 (2006) 1700 183 251 272 350 599 1660 2010 5260 13700
2021-02-26 08:00 3.24 777 14500 (2001) 176 (2006) 1700 183 251 272 350 599 1660 2010 5260 13700
2021-02-26 07:00 3.21 761 14500 (2001) 176 (2006) 1700 183 251 272 350 599 1660 2010 5260 13700
2021-02-26 06:00 3.23 772 14500 (2001) 176 (2006) 1700 183 251 272 350 599 1660 2010 5260 13700
2021-02-26 05:00 3.24 777 14500 (2001) 176 (2006) 1700 183 251 272 350 599 1660 2010 5260 13700
2021-02-26 04:00 3.25 783 14500 (2001) 176 (2006) 1700 183 251 272 350 599 1660 2010 5260 13700
2021-02-26 03:00 3.23 772 14500 (2001) 176 (2006) 1700 183 251 272 350 599 1660 2010 5260 13700
2021-02-26 02:00 3.31 817 14500 (2001) 176 (2006) 1700 183 251 272 350 599 1660 2010 5260 13700
2021-02-26 01:00 3.29 805 14500 (2001) 176 (2006) 1700 183 251 272 350 599 1660 2010 5260 13700
2021-02-26 00:00 3.28 799 14500 (2001) 176 (2006) 1700 183 251 272 350 599 1660 2010 5260 13700
2021-02-25 23:00 3.30 811 18600 (2001) 179 (2006) 2350 185 241 279 363 498 1070 1520 15000 18600
2021-02-25 22:00 3.32 822 18600 (2001) 179 (2006) 2350 185 241 279 363 498 1070 1520 15000 18600
2021-02-25 21:00 3.31 817 18600 (2001) 179 (2006) 2350 185 241 279 363 498 1070 1520 15000 18600
2021-02-25 20:00 3.34 834 18600 (2001) 179 (2006) 2350 185 241 279 363 498 1070 1520 15000 18600
2021-02-25 19:00 3.34 834 18600 (2001) 179 (2006) 2350 185 241 279 363 498 1070 1520 15000 18600
2021-02-25 18:00 3.34 834 18600 (2001) 179 (2006) 2350 185 241 279 363 498 1070 1520 15000 18600
2021-02-25 17:00 3.37 851 18600 (2001) 179 (2006) 2350 185 241 279 363 498 1070 1520 15000 18600
2021-02-25 16:00 3.36 846 18600 (2001) 179 (2006) 2350 185 241 279 363 498 1070 1520 15000 18600
2021-02-25 15:00 3.39 863 18600 (2001) 179 (2006) 2350 185 241 279 363 498 1070 1520 15000 18600
2021-02-25 14:00 3.38 857 18600 (2001) 179 (2006) 2350 185 241 279 363 498 1070 1520 15000 18600
2021-02-25 13:00 3.34 834 18600 (2001) 179 (2006) 2350 185 241 279 363 498 1070 1520 15000 18600
2021-02-25 12:00 3.36 846 18600 (2001) 179 (2006) 2350 185 241 279 363 498 1070 1520 15000 18600
2021-02-25 11:00 3.38 857 18600 (2001) 179 (2006) 2350 185 241 279 363 498 1070 1520 15000 18600
2021-02-25 10:00 3.38 857 18600 (2001) 179 (2006) 2350 185 241 279 363 498 1070 1520 15000 18600
2021-02-25 09:00 3.39 863 18600 (2001) 179 (2006) 2350 185 241 279 363 498 1070 1520 15000 18600
2021-02-25 08:00 3.39 863 18600 (2001) 179 (2006) 2350 185 241 279 363 498 1070 1520 15000 18600
2021-02-25 07:00 3.37 851 18600 (2001) 179 (2006) 2350 185 241 279 363 498 1070 1520 15000 18600
2021-02-25 06:00 3.36 846 18600 (2001) 179 (2006) 2350 185 241 279 363 498 1070 1520 15000 18600
2021-02-25 05:00 3.37 851 18600 (2001) 179 (2006) 2350 185 241 279 363 498 1070 1520 15000 18600
2021-02-25 04:00 3.34 834 18600 (2001) 179 (2006) 2350 185 241 279 363 498 1070 1520 15000 18600
2021-02-25 03:00 3.36 846 18600 (2001) 179 (2006) 2350 185 241 279 363 498 1070 1520 15000 18600
2021-02-25 02:00 3.32 822 18600 (2001) 179 (2006) 2350 185 241 279 363 498 1070 1520 15000 18600
2021-02-25 01:00 3.29 805 18600 (2001) 179 (2006) 2350 185 241 279 363 498 1070 1520 15000 18600
2021-02-25 00:00 3.30 811 18600 (2001) 179 (2006) 2350 185 241 279 363 498 1070 1520 15000 18600
2021-02-24 23:00 3.28 799 6440 (2018) 180 (2006) 925 185 232 289 353 471 898 966 2060 6010
2021-02-24 22:00 3.26 788 6440 (2018) 180 (2006) 925 185 232 289 353 471 898 966 2060 6010
2021-02-24 21:00 3.28 799 6440 (2018) 180 (2006) 925 185 232 289 353 471 898 966 2060 6010
2021-02-24 20:00 3.30 811 6440 (2018) 180 (2006) 925 185 232 289 353 471 898 966 2060 6010
2021-02-24 19:00 3.27 794 6440 (2018) 180 (2006) 925 185 232 289 353 471 898 966 2060 6010
2021-02-24 18:00 3.28 799 6440 (2018) 180 (2006) 925 185 232 289 353 471 898 966 2060 6010
2021-02-24 17:00 3.26 788 6440 (2018) 180 (2006) 925 185 232 289 353 471 898 966 2060 6010
2021-02-24 16:00 3.29 805 6440 (2018) 180 (2006) 925 185 232 289 353 471 898 966 2060 6010
2021-02-24 15:00 3.29 805 6440 (2018) 180 (2006) 925 185 232 289 353 471 898 966 2060 6010
2021-02-24 14:00 3.31 817 6440 (2018) 180 (2006) 925 185 232 289 353 471 898 966 2060 6010
2021-02-24 13:00 3.30 811 6440 (2018) 180 (2006) 925 185 232 289 353 471 898 966 2060 6010
2021-02-24 12:00 3.36 846 6440 (2018) 180 (2006) 925 185 232 289 353 471 898 966 2060 6010
2021-02-24 11:00 3.32 822 6440 (2018) 180 (2006) 925 185 232 289 353 471 898 966 2060 6010
2021-02-24 10:00 3.32 822 6440 (2018) 180 (2006) 925 185 232 289 353 471 898 966 2060 6010
2021-02-24 09:00 3.34 834 6440 (2018) 180 (2006) 925 185 232 289 353 471 898 966 2060 6010
2021-02-24 08:00 3.34 834 6440 (2018) 180 (2006) 925 185 232 289 353 471 898 966 2060 6010
2021-02-24 07:00 3.32 822 6440 (2018) 180 (2006) 925 185 232 289 353 471 898 966 2060 6010
2021-02-24 06:00 3.31 817 6440 (2018) 180 (2006) 925 185 232 289 353 471 898 966 2060 6010
2021-02-24 05:00 3.25 783 6440 (2018) 180 (2006) 925 185 232 289 353 471 898 966 2060 6010
2021-02-24 04:00 3.18 744 6440 (2018) 180 (2006) 925 185 232 289 353 471 898 966 2060 6010
2021-02-24 03:00 3.13 718 6440 (2018) 180 (2006) 925 185 232 289 353 471 898 966 2060 6010
2021-02-24 02:00 3.06 682 6440 (2018) 180 (2006) 925 185 232 289 353 471 898 966 2060 6010
2021-02-24 01:00 2.96 633 6440 (2018) 180 (2006) 925 185 232 289 353 471 898 966 2060 6010
2021-02-24 00:00 2.84 578 6440 (2018) 180 (2006) 925 185 232 289 353 471 898 966 2060 6010
2021-02-23 23:00 2.78 552 2050 (2018) 182 (2006) 676 186 225 305 374 493 845 967 1740 2040
2021-02-23 22:00 2.73 530 2050 (2018) 182 (2006) 676 186 225 305 374 493 845 967 1740 2040
2021-02-23 21:00 2.71 522 2050 (2018) 182 (2006) 676 186 225 305 374 493 845 967 1740 2040
2021-02-23 20:00 2.70 518 2050 (2018) 182 (2006) 676 186 225 305 374 493 845 967 1740 2040
2021-02-23 19:00 2.67 506 2050 (2018) 182 (2006) 676 186 225 305 374 493 845 967 1740 2040
2021-02-23 18:00 2.65 498 2050 (2018) 182 (2006) 676 186 225 305 374 493 845 967 1740 2040
2021-02-23 17:00 2.68 510 2050 (2018) 182 (2006) 676 186 225 305 374 493 845 967 1740 2040
2021-02-23 16:00 2.64 494 2050 (2018) 182 (2006) 676 186 225 305 374 493 845 967 1740 2040
2021-02-23 15:00 2.63 490 2050 (2018) 182 (2006) 676 186 225 305 374 493 845 967 1740 2040
2021-02-23 14:00 2.64 494 2050 (2018) 182 (2006) 676 186 225 305 374 493 845 967 1740 2040
2021-02-23 13:00 2.62 486 2050 (2018) 182 (2006) 676 186 225 305 374 493 845 967 1740 2040
2021-02-23 12:00 2.61 482 2050 (2018) 182 (2006) 676 186 225 305 374 493 845 967 1740 2040
2021-02-23 11:00 2.61 482 2050 (2018) 182 (2006) 676 186 225 305 374 493 845 967 1740 2040
2021-02-23 10:00 2.60 478 2050 (2018) 182 (2006) 676 186 225 305 374 493 845 967 1740 2040
2021-02-23 09:00 2.60 478 2050 (2018) 182 (2006) 676 186 225 305 374 493 845 967 1740 2040
2021-02-23 08:00 2.61 482 2050 (2018) 182 (2006) 676 186 225 305 374 493 845 967 1740 2040
2021-02-23 07:00 2.58 470 2050 (2018) 182 (2006) 676 186 225 305 374 493 845 967 1740 2040
2021-02-23 06:00 2.60 478 2050 (2018) 182 (2006) 676 186 225 305 374 493 845 967 1740 2040
2021-02-23 05:00 2.60 478 2050 (2018) 182 (2006) 676 186 225 305 374 493 845 967 1740 2040
2021-02-23 04:00 2.59 474 2050 (2018) 182 (2006) 676 186 225 305 374 493 845 967 1740 2040
2021-02-23 03:00 2.60 478 2050 (2018) 182 (2006) 676 186 225 305 374 493 845 967 1740 2040
2021-02-23 02:00 2.59 474 2050 (2018) 182 (2006) 676 186 225 305 374 493 845 967 1740 2040
2021-02-23 01:00 2.58 470 2050 (2018) 182 (2006) 676 186 225 305 374 493 845 967 1740 2040
2021-02-23 00:00 2.57 467 2050 (2018) 182 (2006) 676 186 225 305 374 493 845 967 1740 2040
2021-02-22 23:00 2.57 467 4340 (2018) 184 (2006) 792 188 220 312 390 523 776 837 2000 4130
2021-02-22 22:00 2.57 467 4340 (2018) 184 (2006) 792 188 220 312 390 523 776 837 2000 4130
2021-02-22 21:00 2.57 467 4340 (2018) 184 (2006) 792 188 220 312 390 523 776 837 2000 4130
2021-02-22 20:00 2.58 470 4340 (2018) 184 (2006) 792 188 220 312 390 523 776 837 2000 4130
2021-02-22 19:00 2.59 474 4340 (2018) 184 (2006) 792 188 220 312 390 523 776 837 2000 4130
2021-02-22 18:00 2.55 459 4340 (2018) 184 (2006) 792 188 220 312 390 523 776 837 2000 4130
2021-02-22 17:00 2.58 470 4340 (2018) 184 (2006) 792 188 220 312 390 523 776 837 2000 4130
2021-02-22 16:00 2.57 467 4340 (2018) 184 (2006) 792 188 220 312 390 523 776 837 2000 4130
2021-02-22 15:00 2.57 467 4340 (2018) 184 (2006) 792 188 220 312 390 523 776 837 2000 4130
2021-02-22 14:00 2.56 463 4340 (2018) 184 (2006) 792 188 220 312 390 523 776 837 2000 4130
2021-02-22 13:00 2.55 459 4340 (2018) 184 (2006) 792 188 220 312 390 523 776 837 2000 4130
2021-02-22 12:00 2.57 467 4340 (2018) 184 (2006) 792 188 220 312 390 523 776 837 2000 4130
2021-02-22 11:00 2.58 470 4340 (2018) 184 (2006) 792 188 220 312 390 523 776 837 2000 4130
2021-02-22 10:00 2.55 459 4340 (2018) 184 (2006) 792 188 220 312 390 523 776 837 2000 4130
2021-02-22 09:00 2.56 463 4340 (2018) 184 (2006) 792 188 220 312 390 523 776 837 2000 4130
2021-02-22 08:00 2.56 463 4340 (2018) 184 (2006) 792 188 220 312 390 523 776 837 2000 4130
2021-02-22 07:00 2.56 463 4340 (2018) 184 (2006) 792 188 220 312 390 523 776 837 2000 4130
2021-02-22 06:00 2.54 455 4340 (2018) 184 (2006) 792 188 220 312 390 523 776 837 2000 4130
2021-02-22 05:00 2.54 455 4340 (2018) 184 (2006) 792 188 220 312 390 523 776 837 2000 4130
2021-02-22 04:00 2.55 459 4340 (2018) 184 (2006) 792 188 220 312 390 523 776 837 2000 4130
2021-02-22 03:00 2.58 470 4340 (2018) 184 (2006) 792 188 220 312 390 523 776 837 2000 4130
2021-02-22 02:00 2.57 467 4340 (2018) 184 (2006) 792 188 220 312 390 523 776 837 2000 4130
2021-02-22 01:00 2.57 467 4340 (2018) 184 (2006) 792 188 220 312 390 523 776 837 2000 4130
2021-02-22 00:00 2.54 455 4340 (2018) 184 (2006) 792 188 220 312 390 523 776 837 2000 4130
2021-02-21 23:00 2.57 467 2310 (2019) 186 (2006) 672 189 220 316 401 559 836 951 1290 2210
2021-02-21 22:00 2.54 455 2310 (2019) 186 (2006) 672 189 220 316 401 559 836 951 1290 2210
2021-02-21 21:00 2.56 463 2310 (2019) 186 (2006) 672 189 220 316 401 559 836 951 1290 2210
2021-02-21 20:00 2.54 455 2310 (2019) 186 (2006) 672 189 220 316 401 559 836 951 1290 2210
2021-02-21 19:00 2.56 463 2310 (2019) 186 (2006) 672 189 220 316 401 559 836 951 1290 2210
2021-02-21 18:00 2.55 459 2310 (2019) 186 (2006) 672 189 220 316 401 559 836 951 1290 2210
2021-02-21 17:00 2.56 463 2310 (2019) 186 (2006) 672 189 220 316 401 559 836 951 1290 2210
2021-02-21 16:00 2.56 463 2310 (2019) 186 (2006) 672 189 220 316 401 559 836 951 1290 2210
2021-02-21 15:00 2.53 452 2310 (2019) 186 (2006) 672 189 220 316 401 559 836 951 1290 2210
2021-02-21 14:00 2.57 467 2310 (2019) 186 (2006) 672 189 220 316 401 559 836 951 1290 2210
2021-02-21 13:00 2.56 463 2310 (2019) 186 (2006) 672 189 220 316 401 559 836 951 1290 2210
2021-02-21 12:00 2.56 463 2310 (2019) 186 (2006) 672 189 220 316 401 559 836 951 1290 2210
2021-02-21 11:00 2.54 455 2310 (2019) 186 (2006) 672 189 220 316 401 559 836 951 1290 2210
2021-02-21 10:00 2.55 459 2310 (2019) 186 (2006) 672 189 220 316 401 559 836 951 1290 2210
2021-02-21 09:00 2.54 455 2310 (2019) 186 (2006) 672 189 220 316 401 559 836 951 1290 2210
2021-02-21 08:00 2.56 463 2310 (2019) 186 (2006) 672 189 220 316 401 559 836 951 1290 2210
2021-02-21 07:00 2.56 463 2310 (2019) 186 (2006) 672 189 220 316 401 559 836 951 1290 2210
2021-02-21 06:00 2.56 463 2310 (2019) 186 (2006) 672 189 220 316 401 559 836 951 1290 2210
2021-02-21 05:00 2.57 467 2310 (2019) 186 (2006) 672 189 220 316 401 559 836 951 1290 2210
2021-02-21 04:00 2.58 470 2310 (2019) 186 (2006) 672 189 220 316 401 559 836 951 1290 2210
2021-02-21 03:00 2.56 463 2310 (2019) 186 (2006) 672 189 220 316 401 559 836 951 1290 2210
2021-02-21 02:00 2.59 474 2310 (2019) 186 (2006) 672 189 220 316 401 559 836 951 1290 2210
2021-02-21 01:00 2.55 459 2310 (2019) 186 (2006) 672 189 220 316 401 559 836 951 1290 2210
2021-02-21 00:00 2.56 463 2310 (2019) 186 (2006) 672 189 220 316 401 559 836 951 1290 2210
2021-02-20 23:00 2.58 470 1900 (2008) 187 (2006) 615 189 205 240 312 614 741 874 1110 1820
2021-02-20 22:00 2.56 463 1900 (2008) 187 (2006) 615 189 205 240 312 614 741 874 1110 1820
2021-02-20 21:00 2.57 467 1900 (2008) 187 (2006) 615 189 205 240 312 614 741 874 1110 1820
2021-02-20 20:00 2.57 467 1900 (2008) 187 (2006) 615 189 205 240 312 614 741 874 1110 1820
2021-02-20 19:00 2.55 459 1900 (2008) 187 (2006) 615 189 205 240 312 614 741 874 1110 1820
2021-02-20 18:00 2.55 459 1900 (2008) 187 (2006) 615 189 205 240 312 614 741 874 1110 1820
2021-02-20 17:00 2.56 463 1900 (2008) 187 (2006) 615 189 205 240 312 614 741 874 1110 1820
2021-02-20 16:00 2.58 470 1900 (2008) 187 (2006) 615 189 205 240 312 614 741 874 1110 1820
2021-02-20 15:00 2.55 459 1900 (2008) 187 (2006) 615 189 205 240 312 614 741 874 1110 1820
2021-02-20 14:00 2.54 455 1900 (2008) 187 (2006) 615 189 205 240 312 614 741 874 1110 1820
2021-02-20 13:00 2.56 463 1900 (2008) 187 (2006) 615 189 205 240 312 614 741 874 1110 1820
2021-02-20 12:00 2.56 463 1900 (2008) 187 (2006) 615 189 205 240 312 614 741 874 1110 1820
2021-02-20 11:00 2.56 463 1900 (2008) 187 (2006) 615 189 205 240 312 614 741 874 1110 1820
2021-02-20 10:00 2.56 463 1900 (2008) 187 (2006) 615 189 205 240 312 614 741 874 1110 1820
2021-02-20 09:00 2.54 455 1900 (2008) 187 (2006) 615 189 205 240 312 614 741 874 1110 1820
2021-02-20 08:00 2.55 459 1900 (2008) 187 (2006) 615 189 205 240 312 614 741 874 1110 1820
2021-02-20 07:00 2.56 463 1900 (2008) 187 (2006) 615 189 205 240 312 614 741 874 1110 1820
2021-02-20 06:00 2.55 459 1900 (2008) 187 (2006) 615 189 205 240 312 614 741 874 1110 1820
2021-02-20 05:00 2.57 467 1900 (2008) 187 (2006) 615 189 205 240 312 614 741 874 1110 1820
2021-02-20 04:00 2.56 463 1900 (2008) 187 (2006) 615 189 205 240 312 614 741 874 1110 1820
2021-02-20 03:00 2.56 463 1900 (2008) 187 (2006) 615 189 205 240 312 614 741 874 1110 1820
2021-02-20 02:00 2.56 463 1900 (2008) 187 (2006) 615 189 205 240 312 614 741 874 1110 1820
2021-02-20 01:00 2.57 467 1900 (2008) 187 (2006) 615 189 205 240 312 614 741 874 1110 1820
2021-02-20 00:00 2.58 470 1900 (2008) 187 (2006) 615 189 205 240 312 614 741 874 1110 1820
2021-02-19 23:00 2.61 482 3140 (2008) 190 (2006) 690 191 199 230 305 533 817 977 1160 2940
2021-02-19 22:00 2.62 486 3140 (2008) 190 (2006) 690 191 199 230 305 533 817 977 1160 2940
2021-02-19 21:00 2.61 482 3140 (2008) 190 (2006) 690 191 199 230 305 533 817 977 1160 2940
2021-02-19 20:00 2.60 478 3140 (2008) 190 (2006) 690 191 199 230 305 533 817 977 1160 2940
2021-02-19 19:00 2.62 486 3140 (2008) 190 (2006) 690 191 199 230 305 533 817 977 1160 2940
2021-02-19 18:00 2.62 486 3140 (2008) 190 (2006) 690 191 199 230 305 533 817 977 1160 2940
2021-02-19 17:00 2.61 482 3140 (2008) 190 (2006) 690 191 199 230 305 533 817 977 1160 2940
2021-02-19 16:00 2.61 482 3140 (2008) 190 (2006) 690 191 199 230 305 533 817 977 1160 2940
2021-02-19 15:00 2.59 474 3140 (2008) 190 (2006) 690 191 199 230 305 533 817 977 1160 2940
2021-02-19 14:00 2.64 494 3140 (2008) 190 (2006) 690 191 199 230 305 533 817 977 1160 2940
2021-02-19 13:00 2.64 494 3140 (2008) 190 (2006) 690 191 199 230 305 533 817 977 1160 2940
2021-02-19 12:00 2.62 486 3140 (2008) 190 (2006) 690 191 199 230 305 533 817 977 1160 2940
2021-02-19 11:00 2.63 490 3140 (2008) 190 (2006) 690 191 199 230 305 533 817 977 1160 2940
2021-02-19 10:00 2.62 486 3140 (2008) 190 (2006) 690 191 199 230 305 533 817 977 1160 2940
2021-02-19 09:00 2.63 490 3140 (2008) 190 (2006) 690 191 199 230 305 533 817 977 1160 2940
2021-02-19 08:00 2.64 494 3140 (2008) 190 (2006) 690 191 199 230 305 533 817 977 1160 2940
2021-02-19 07:00 2.65 498 3140 (2008) 190 (2006) 690 191 199 230 305 533 817 977 1160 2940
2021-02-19 06:00 2.63 490 3140 (2008) 190 (2006) 690 191 199 230 305 533 817 977 1160 2940
2021-02-19 05:00 2.64 494 3140 (2008) 190 (2006) 690 191 199 230 305 533 817 977 1160 2940
2021-02-19 04:00 2.62 486 3140 (2008) 190 (2006) 690 191 199 230 305 533 817 977 1160 2940
2021-02-19 03:00 2.64 494 3140 (2008) 190 (2006) 690 191 199 230 305 533 817 977 1160 2940
2021-02-19 02:00 2.65 498 3140 (2008) 190 (2006) 690 191 199 230 305 533 817 977 1160 2940
2021-02-19 01:00 2.65 498 3140 (2008) 190 (2006) 690 191 199 230 305 533 817 977 1160 2940
2021-02-19 00:00 2.66 502 3140 (2008) 190 (2006) 690 191 199 230 305 533 817 977 1160 2940
2021-02-18 23:00 2.65 498 10300 (2008) 183 (2018) 1080 184 193 211 237 590 919 1110 1450 9420
2021-02-18 22:00 2.67 506 10300 (2008) 183 (2018) 1080 184 193 211 237 590 919 1110 1450 9420
2021-02-18 21:00 2.68 510 10300 (2008) 183 (2018) 1080 184 193 211 237 590 919 1110 1450 9420
2021-02-18 20:00 2.65 498 10300 (2008) 183 (2018) 1080 184 193 211 237 590 919 1110 1450 9420
2021-02-18 19:00 2.70 518 10300 (2008) 183 (2018) 1080 184 193 211 237 590 919 1110 1450 9420
2021-02-18 18:00 2.67 506 10300 (2008) 183 (2018) 1080 184 193 211 237 590 919 1110 1450 9420
2021-02-18 17:00 2.68 510 10300 (2008) 183 (2018) 1080 184 193 211 237 590 919 1110 1450 9420
2021-02-18 16:00 2.67 506 10300 (2008) 183 (2018) 1080 184 193 211 237 590 919 1110 1450 9420
2021-02-18 15:00 2.67 506 10300 (2008) 183 (2018) 1080 184 193 211 237 590 919 1110 1450 9420
2021-02-18 14:00 2.66 502 10300 (2008) 183 (2018) 1080 184 193 211 237 590 919 1110 1450 9420
2021-02-18 13:00 2.70 518 10300 (2008) 183 (2018) 1080 184 193 211 237 590 919 1110 1450 9420
2021-02-18 12:00 2.69 514 10300 (2008) 183 (2018) 1080 184 193 211 237 590 919 1110 1450 9420
2021-02-18 11:00 2.71 522 10300 (2008) 183 (2018) 1080 184 193 211 237 590 919 1110 1450 9420
2021-02-18 10:00 2.70 518 10300 (2008) 183 (2018) 1080 184 193 211 237 590 919 1110 1450 9420
2021-02-18 09:00 2.69 514 10300 (2008) 183 (2018) 1080 184 193 211 237 590 919 1110 1450 9420
2021-02-18 08:00 2.71 522 10300 (2008) 183 (2018) 1080 184 193 211 237 590 919 1110 1450 9420
2021-02-18 07:00 2.71 522 10300 (2008) 183 (2018) 1080 184 193 211 237 590 919 1110 1450 9420
2021-02-18 06:00 2.71 522 10300 (2008) 183 (2018) 1080 184 193 211 237 590 919 1110 1450 9420
2021-02-18 05:00 2.73 530 10300 (2008) 183 (2018) 1080 184 193 211 237 590 919 1110 1450 9420
2021-02-18 04:00 2.75 539 10300 (2008) 183 (2018) 1080 184 193 211 237 590 919 1110 1450 9420
2021-02-18 03:00 2.71 522 10300 (2008) 183 (2018) 1080 184 193 211 237 590 919 1110 1450 9420
2021-02-18 02:00 2.75 539 10300 (2008) 183 (2018) 1080 184 193 211 237 590 919 1110 1450 9420
2021-02-18 01:00 2.73 530 10300 (2008) 183 (2018) 1080 184 193 211 237 590 919 1110 1450 9420
2021-02-18 00:00 2.75 539 10300 (2008) 183 (2018) 1080 184 193 211 237 590 919 1110 1450 9420
2021-02-17 23:00 2.77 547 4060 (2008) 166 (2000) 876 167 184 213 239 637 1150 1310 1960 3860
2021-02-17 22:00 2.74 535 4060 (2008) 166 (2000) 876 167 184 213 239 637 1150 1310 1960 3860
2021-02-17 21:00 2.76 543 4060 (2008) 166 (2000) 876 167 184 213 239 637 1150 1310 1960 3860
2021-02-17 20:00 2.74 535 4060 (2008) 166 (2000) 876 167 184 213 239 637 1150 1310 1960 3860
2021-02-17 19:00 2.78 552 4060 (2008) 166 (2000) 876 167 184 213 239 637 1150 1310 1960 3860
2021-02-17 18:00 2.75 539 4060 (2008) 166 (2000) 876 167 184 213 239 637 1150 1310 1960 3860
2021-02-17 17:00 2.79 556 4060 (2008) 166 (2000) 876 167 184 213 239 637 1150 1310 1960 3860
2021-02-17 16:00 2.78 552 4060 (2008) 166 (2000) 876 167 184 213 239 637 1150 1310 1960 3860
2021-02-17 15:00 2.78 552 4060 (2008) 166 (2000) 876 167 184 213 239 637 1150 1310 1960 3860
2021-02-17 14:00 2.77 547 4060 (2008) 166 (2000) 876 167 184 213 239 637 1150 1310 1960 3860
2021-02-17 13:00 2.76 543 4060 (2008) 166 (2000) 876 167 184 213 239 637 1150 1310 1960 3860
2021-02-17 12:00 2.80 560 4060 (2008) 166 (2000) 876 167 184 213 239 637 1150 1310 1960 3860
2021-02-17 11:00 2.74 535 4060 (2008) 166 (2000) 876 167 184 213 239 637 1150 1310 1960 3860
2021-02-17 10:00 2.67 506 4060 (2008) 166 (2000) 876 167 184 213 239 637 1150 1310 1960 3860
2021-02-17 09:00 2.64 494 4060 (2008) 166 (2000) 876 167 184 213 239 637 1150 1310 1960 3860
2021-02-17 08:00 2.60 478 4060 (2008) 166 (2000) 876 167 184 213 239 637 1150 1310 1960 3860
2021-02-17 07:00 2.59 474 4060 (2008) 166 (2000) 876 167 184 213 239 637 1150 1310 1960 3860
2021-02-17 06:00 2.59 474 4060 (2008) 166 (2000) 876 167 184 213 239 637 1150 1310 1960 3860
2021-02-17 05:00 2.63 490 4060 (2008) 166 (2000) 876 167 184 213 239 637 1150 1310 1960 3860
2021-02-17 04:00 2.65 498 4060 (2008) 166 (2000) 876 167 184 213 239 637 1150 1310 1960 3860
2021-02-17 03:00 2.65 498 4060 (2008) 166 (2000) 876 167 184 213 239 637 1150 1310 1960 3860
2021-02-17 02:00 2.66 502 4060 (2008) 166 (2000) 876 167 184 213 239 637 1150 1310 1960 3860
2021-02-17 01:00 2.67 506 4060 (2008) 166 (2000) 876 167 184 213 239 637 1150 1310 1960 3860
2021-02-17 00:00 2.69 514 4060 (2008) 166 (2000) 876 167 184 213 239 637 1150 1310 1960 3860
2021-02-16 23:00 2.70 518 1690 (2019) 160 (2000) 734 162 186 213 238 598 1120 1180 1570 1680
2021-02-16 22:00 2.72 526 1690 (2019) 160 (2000) 734 162 186 213 238 598 1120 1180 1570 1680
2021-02-16 21:00 2.76 543 1690 (2019) 160 (2000) 734 162 186 213 238 598 1120 1180 1570 1680
2021-02-16 20:00 2.83 573 1690 (2019) 160 (2000) 734 162 186 213 238 598 1120 1180 1570 1680
2021-02-16 19:00 2.84 578 1690 (2019) 160 (2000) 734 162 186 213 238 598 1120 1180 1570 1680
2021-02-16 18:00 2.84 578 1690 (2019) 160 (2000) 734 162 186 213 238 598 1120 1180 1570 1680
2021-02-16 17:00 2.85 582 1690 (2019) 160 (2000) 734 162 186 213 238 598 1120 1180 1570 1680
2021-02-16 16:00 2.77 547 1690 (2019) 160 (2000) 734 162 186 213 238 598 1120 1180 1570 1680
2021-02-16 15:00 2.71 522 1690 (2019) 160 (2000) 734 162 186 213 238 598 1120 1180 1570 1680
2021-02-16 14:00 2.66 502 1690 (2019) 160 (2000) 734 162 186 213 238 598 1120 1180 1570 1680
2021-02-16 13:00 2.65 498 1690 (2019) 160 (2000) 734 162 186 213 238 598 1120 1180 1570 1680
2021-02-16 12:00 2.59 474 1690 (2019) 160 (2000) 734 162 186 213 238 598 1120 1180 1570 1680
2021-02-16 11:00 2.55 459 1690 (2019) 160 (2000) 734 162 186 213 238 598 1120 1180 1570 1680
2021-02-16 10:00 2.49 437 1690 (2019) 160 (2000) 734 162 186 213 238 598 1120 1180 1570 1680
2021-02-16 09:00 2.45 421 1690 (2019) 160 (2000) 734 162 186 213 238 598 1120 1180 1570 1680
2021-02-16 08:00 2.46 425 1690 (2019) 160 (2000) 734 162 186 213 238 598 1120 1180 1570 1680
2021-02-16 07:00 2.48 433 1690 (2019) 160 (2000) 734 162 186 213 238 598 1120 1180 1570 1680
2021-02-16 06:00 2.52 448 1690 (2019) 160 (2000) 734 162 186 213 238 598 1120 1180 1570 1680
2021-02-16 05:00 2.54 455 1690 (2019) 160 (2000) 734 162 186 213 238 598 1120 1180 1570 1680
2021-02-16 04:00 2.57 467 1690 (2019) 160 (2000) 734 162 186 213 238 598 1120 1180 1570 1680
2021-02-16 03:00 2.60 478 1690 (2019) 160 (2000) 734 162 186 213 238 598 1120 1180 1570 1680
2021-02-16 02:00 2.64 494 1690 (2019) 160 (2000) 734 162 186 213 238 598 1120 1180 1570 1680
2021-02-16 01:00 2.67 506 1690 (2019) 160 (2000) 734 162 186 213 238 598 1120 1180 1570 1680
2021-02-16 00:00 2.68 510 1690 (2019) 160 (2000) 734 162 186 213 238 598 1120 1180 1570 1680
2021-02-15 23:00 2.68 510 2100 (2019) 161 (2000) 738 162 178 211 236 485 1220 1630 1980 2090
2021-02-15 22:00 2.63 490 2100 (2019) 161 (2000) 738 162 178 211 236 485 1220 1630 1980 2090
2021-02-15 21:00 2.62 486 2100 (2019) 161 (2000) 738 162 178 211 236 485 1220 1630 1980 2090
2021-02-15 20:00 2.65 498 2100 (2019) 161 (2000) 738 162 178 211 236 485 1220 1630 1980 2090
2021-02-15 19:00 2.64 494 2100 (2019) 161 (2000) 738 162 178 211 236 485 1220 1630 1980 2090
2021-02-15 18:00 2.63 490 2100 (2019) 161 (2000) 738 162 178 211 236 485 1220 1630 1980 2090
2021-02-15 17:00 2.61 482 2100 (2019) 161 (2000) 738 162 178 211 236 485 1220 1630 1980 2090
2021-02-15 16:00 2.59 474 2100 (2019) 161 (2000) 738 162 178 211 236 485 1220 1630 1980 2090
2021-02-15 15:00 2.62 486 2100 (2019) 161 (2000) 738 162 178 211 236 485 1220 1630 1980 2090
2021-02-15 14:00 2.60 478 2100 (2019) 161 (2000) 738 162 178 211 236 485 1220 1630 1980 2090
2021-02-15 13:00 2.63 490 2100 (2019) 161 (2000) 738 162 178 211 236 485 1220 1630 1980 2090
2021-02-15 12:00 2.59 474 2100 (2019) 161 (2000) 738 162 178 211 236 485 1220 1630 1980 2090
2021-02-15 11:00 2.59 474 2100 (2019) 161 (2000) 738 162 178 211 236 485 1220 1630 1980 2090
2021-02-15 10:00 2.58 470 2100 (2019) 161 (2000) 738 162 178 211 236 485 1220 1630 1980 2090
2021-02-15 09:00 2.59 474 2100 (2019) 161 (2000) 738 162 178 211 236 485 1220 1630 1980 2090
2021-02-15 08:00 2.61 482 2100 (2019) 161 (2000) 738 162 178 211 236 485 1220 1630 1980 2090
2021-02-15 07:00 2.63 490 2100 (2019) 161 (2000) 738 162 178 211 236 485 1220 1630 1980 2090
2021-02-15 06:00 2.66 502 2100 (2019) 161 (2000) 738 162 178 211 236 485 1220 1630 1980 2090
2021-02-15 05:00 2.67 506 2100 (2019) 161 (2000) 738 162 178 211 236 485 1220 1630 1980 2090
2021-02-15 04:00 2.69 514 2100 (2019) 161 (2000) 738 162 178 211 236 485 1220 1630 1980 2090
2021-02-15 03:00 2.73 530 2100 (2019) 161 (2000) 738 162 178 211 236 485 1220 1630 1980 2090
2021-02-15 02:00 2.73 530 2100 (2019) 161 (2000) 738 162 178 211 236 485 1220 1630 1980 2090
2021-02-15 01:00 2.73 530 2100 (2019) 161 (2000) 738 162 178 211 236 485 1220 1630 1980 2090
2021-02-15 00:00 2.75 539 2100 (2019) 161 (2000) 738 162 178 211 236 485 1220 1630 1980 2090
2021-02-14 23:00 2.73 530 2900 (2020) 161 (2000) 850 162 178 211 214 434 1400 2040 2550 2870
2021-02-14 22:00 2.76 543 2900 (2020) 161 (2000) 850 162 178 211 214 434 1400 2040 2550 2870
2021-02-14 21:00 2.75 539 2900 (2020) 161 (2000) 850 162 178 211 214 434 1400 2040 2550 2870
2021-02-14 20:00 2.77 547 2900 (2020) 161 (2000) 850 162 178 211 214 434 1400 2040 2550 2870
2021-02-14 19:00 2.75 539 2900 (2020) 161 (2000) 850 162 178 211 214 434 1400 2040 2550 2870
2021-02-14 18:00 2.75 539 2900 (2020) 161 (2000) 850 162 178 211 214 434 1400 2040 2550 2870
2021-02-14 17:00 2.76 543 2900 (2020) 161 (2000) 850 162 178 211 214 434 1400 2040 2550 2870
2021-02-14 16:00 2.76 543 2900 (2020) 161 (2000) 850 162 178 211 214 434 1400 2040 2550 2870
2021-02-14 15:00 2.76 543 2900 (2020) 161 (2000) 850 162 178 211 214 434 1400 2040 2550 2870
2021-02-14 14:00 2.75 539 2900 (2020) 161 (2000) 850 162 178 211 214 434 1400 2040 2550 2870
2021-02-14 13:00 2.77 547 2900 (2020) 161 (2000) 850 162 178 211 214 434 1400 2040 2550 2870
2021-02-14 12:00 2.76 543 2900 (2020) 161 (2000) 850 162 178 211 214 434 1400 2040 2550 2870
2021-02-14 11:00 2.78 552 2900 (2020) 161 (2000) 850 162 178 211 214 434 1400 2040 2550 2870
2021-02-14 10:00 2.77 547 2900 (2020) 161 (2000) 850 162 178 211 214 434 1400 2040 2550 2870
2021-02-14 09:00 2.81 565 2900 (2020) 161 (2000) 850 162 178 211 214 434 1400 2040 2550 2870
2021-02-14 08:00 2.77 547 2900 (2020) 161 (2000) 850 162 178 211 214 434 1400 2040 2550 2870
2021-02-14 07:00 2.79 556 2900 (2020) 161 (2000) 850 162 178 211 214 434 1400 2040 2550 2870
2021-02-14 06:00 2.77 547 2900 (2020) 161 (2000) 850 162 178 211 214 434 1400 2040 2550 2870
2021-02-14 05:00 2.79 556 2900 (2020) 161 (2000) 850 162 178 211 214 434 1400 2040 2550 2870
2021-02-14 04:00 2.78 552 2900 (2020) 161 (2000) 850 162 178 211 214 434 1400 2040 2550 2870
2021-02-14 03:00 2.77 547 2900 (2020) 161 (2000) 850 162 178 211 214 434 1400 2040 2550 2870
2021-02-14 02:00 2.79 556 2900 (2020) 161 (2000) 850 162 178 211 214 434 1400 2040 2550 2870
2021-02-14 01:00 2.79 556 2900 (2020) 161 (2000) 850 162 178 211 214 434 1400 2040 2550 2870
2021-02-14 00:00 2.79 556 2900 (2020) 161 (2000) 850 162 178 211 214 434 1400 2040 2550 2870
2021-02-13 23:00 2.81 565 3770 (2019) 161 (2000) 833 162 172 214 216 369 814 924 3280 3730
2021-02-13 22:00 2.80 560 3770 (2019) 161 (2000) 833 162 172 214 216 369 814 924 3280 3730
2021-02-13 21:00 2.77 547 3770 (2019) 161 (2000) 833 162 172 214 216 369 814 924 3280 3730
2021-02-13 20:00 2.81 565 3770 (2019) 161 (2000) 833 162 172 214 216 369 814 924 3280 3730
2021-02-13 19:00 2.83 573 3770 (2019) 161 (2000) 833 162 172 214 216 369 814 924 3280 3730
2021-02-13 18:00 2.82 569 3770 (2019) 161 (2000) 833 162 172 214 216 369 814 924 3280 3730
2021-02-13 17:00 2.83 573 3770 (2019) 161 (2000) 833 162 172 214 216 369 814 924 3280 3730
2021-02-13 16:00 2.83 573 3770 (2019) 161 (2000) 833 162 172 214 216 369 814 924 3280 3730
2021-02-13 15:00 2.80 560 3770 (2019) 161 (2000) 833 162 172 214 216 369 814 924 3280 3730
2021-02-13 14:00 2.83 573 3770 (2019) 161 (2000) 833 162 172 214 216 369 814 924 3280 3730
2021-02-13 13:00 2.86 587 3770 (2019) 161 (2000) 833 162 172 214 216 369 814 924 3280 3730
2021-02-13 12:00 2.83 573 3770 (2019) 161 (2000) 833 162 172 214 216 369 814 924 3280 3730
2021-02-13 11:00 2.87 591 3770 (2019) 161 (2000) 833 162 172 214 216 369 814 924 3280 3730
2021-02-13 10:00 2.85 582 3770 (2019) 161 (2000) 833 162 172 214 216 369 814 924 3280 3730
2021-02-13 09:00 2.85 582 3770 (2019) 161 (2000) 833 162 172 214 216 369 814 924 3280 3730
2021-02-13 08:00 2.85 582 3770 (2019) 161 (2000) 833 162 172 214 216 369 814 924 3280 3730
2021-02-13 07:00 2.84 578 3770 (2019) 161 (2000) 833 162 172 214 216 369 814 924 3280 3730
2021-02-13 06:00 2.84 578 3770 (2019) 161 (2000) 833 162 172 214 216 369 814 924 3280 3730
2021-02-13 05:00 2.88 596 3770 (2019) 161 (2000) 833 162 172 214 216 369 814 924 3280 3730
2021-02-13 04:00 2.87 591 3770 (2019) 161 (2000) 833 162 172 214 216 369 814 924 3280 3730
2021-02-13 03:00 2.84 578 3770 (2019) 161 (2000) 833 162 172 214 216 369 814 924 3280 3730
2021-02-13 02:00 2.86 587 3770 (2019) 161 (2000) 833 162 172 214 216 369 814 924 3280 3730
2021-02-13 01:00 2.87 591 3770 (2019) 161 (2000) 833 162 172 214 216 369 814 924 3280 3730
2021-02-13 00:00 2.87 591 3770 (2019) 161 (2000) 833 162 172 214 216 369 814 924 3280 3730
2021-02-12 23:00 2.86 587 10300 (2009) 160 (2000) 1110 161 174 214 221 367 704 924 3560 9670
2021-02-12 22:00 2.86 587 10300 (2009) 160 (2000) 1110 161 174 214 221 367 704 924 3560 9670
2021-02-12 21:00 2.85 582 10300 (2009) 160 (2000) 1110 161 174 214 221 367 704 924 3560 9670
2021-02-12 20:00 2.87 591 10300 (2009) 160 (2000) 1110 161 174 214 221 367 704 924 3560 9670
2021-02-12 19:00 2.89 600 10300 (2009) 160 (2000) 1110 161 174 214 221 367 704 924 3560 9670
2021-02-12 18:00 2.89 600 10300 (2009) 160 (2000) 1110 161 174 214 221 367 704 924 3560 9670
2021-02-12 17:00 2.88 596 10300 (2009) 160 (2000) 1110 161 174 214 221 367 704 924 3560 9670
2021-02-12 16:00 2.89 600 10300 (2009) 160 (2000) 1110 161 174 214 221 367 704 924 3560 9670
2021-02-12 15:00 2.90 605 10300 (2009) 160 (2000) 1110 161 174 214 221 367 704 924 3560 9670
2021-02-12 14:00 2.90 605 10300 (2009) 160 (2000) 1110 161 174 214 221 367 704 924 3560 9670
2021-02-12 13:00 2.89 600 10300 (2009) 160 (2000) 1110 161 174 214 221 367 704 924 3560 9670
2021-02-12 12:00 2.92 614 10300 (2009) 160 (2000) 1110 161 174 214 221 367 704 924 3560 9670
2021-02-12 11:00 2.91 610 10300 (2009) 160 (2000) 1110 161 174 214 221 367 704 924 3560 9670
2021-02-12 10:00 2.94 624 10300 (2009) 160 (2000) 1110 161 174 214 221 367 704 924 3560 9670
2021-02-12 09:00 2.89 600 10300 (2009) 160 (2000) 1110 161 174 214 221 367 704 924 3560 9670
2021-02-12 08:00 2.91 610 10300 (2009) 160 (2000) 1110 161 174 214 221 367 704 924 3560 9670
2021-02-12 07:00 2.91 610 10300 (2009) 160 (2000) 1110 161 174 214 221 367 704 924 3560 9670
2021-02-12 06:00 2.92 614 10300 (2009) 160 (2000) 1110 161 174 214 221 367 704 924 3560 9670
2021-02-12 05:00 2.91 560 10300 (2009) 160 (2000) 1110 161 174 214 221 367 704 924 3560 9670
2021-02-12 04:00 2.92 565 10300 (2009) 160 (2000) 1110 161 174 214 221 367 704 924 3560 9670
2021-02-12 03:00 2.94 574 10300 (2009) 160 (2000) 1110 161 174 214 221 367 704 924 3560 9670
2021-02-12 02:00 2.95 578 10300 (2009) 160 (2000) 1110 161 174 214 221 367 704 924 3560 9670
2021-02-12 01:00 2.92 565 10300 (2009) 160 (2000) 1110 161 174 214 221 367 704 924 3560 9670
2021-02-12 00:00 2.93 569 10300 (2009) 160 (2000) 1110 161 174 214 221 367 704 924 3560 9670
2021-02-11 23:00 2.94 574 3490 (2009) 160 (2000) 684 161 175 215 227 373 631 950 1920 3330
2021-02-11 22:00 2.95 578 3490 (2009) 160 (2000) 684 161 175 215 227 373 631 950 1920 3330
2021-02-11 21:00 2.95 578 3490 (2009) 160 (2000) 684 161 175 215 227 373 631 950 1920 3330
2021-02-11 20:00 2.98 592 3490 (2009) 160 (2000) 684 161 175 215 227 373 631 950 1920 3330
2021-02-11 19:00 2.97 588 3490 (2009) 160 (2000) 684 161 175 215 227 373 631 950 1920 3330
2021-02-11 18:00 2.95 578 3490 (2009) 160 (2000) 684 161 175 215 227 373 631 950 1920 3330
2021-02-11 17:00 2.98 592 3490 (2009) 160 (2000) 684 161 175 215 227 373 631 950 1920 3330
2021-02-11 16:00 3.00 601 3490 (2009) 160 (2000) 684 161 175 215 227 373 631 950 1920 3330
2021-02-11 15:00 2.94 574 3490 (2009) 160 (2000) 684 161 175 215 227 373 631 950 1920 3330
2021-02-11 14:00 2.96 583 3490 (2009) 160 (2000) 684 161 175 215 227 373 631 950 1920 3330
2021-02-11 13:00 2.96 583 3490 (2009) 160 (2000) 684 161 175 215 227 373 631 950 1920 3330
2021-02-11 12:00 2.99 597 3490 (2009) 160 (2000) 684 161 175 215 227 373 631 950 1920 3330
2021-02-11 11:00 2.99 597 3490 (2009) 160 (2000) 684 161 175 215 227 373 631 950 1920 3330
2021-02-11 10:00 2.97 588 3490 (2009) 160 (2000) 684 161 175 215 227 373 631 950 1920 3330
2021-02-11 09:00 3.04 620 3490 (2009) 160 (2000) 684 161 175 215 227 373 631 950 1920 3330
2021-02-11 08:00 2.96 583 3490 (2009) 160 (2000) 684 161 175 215 227 373 631 950 1920 3330
2021-02-11 07:00 2.97 588 3490 (2009) 160 (2000) 684 161 175 215 227 373 631 950 1920 3330
2021-02-11 06:00 2.98 592 3490 (2009) 160 (2000) 684 161 175 215 227 373 631 950 1920 3330
2021-02-11 05:00 3.02 611 3490 (2009) 160 (2000) 684 161 175 215 227 373 631 950 1920 3330
2021-02-11 04:00 3.01 606 3490 (2009) 160 (2000) 684 161 175 215 227 373 631 950 1920 3330
2021-02-11 03:00 3.03 616 3490 (2009) 160 (2000) 684 161 175 215 227 373 631 950 1920 3330
2021-02-11 02:00 3.06 630 3490 (2009) 160 (2000) 684 161 175 215 227 373 631 950 1920 3330
2021-02-11 01:00 3.03 616 3490 (2009) 160 (2000) 684 161 175 215 227 373 631 950 1920 3330
2021-02-11 00:00 3.03 616 3490 (2009) 160 (2000) 684 161 175 215 227 373 631 950 1920 3330
2021-02-10 23:00 3.03 616 2110 (2019) 162 (2000) 551 163 175 217 230 380 659 835 1270 2030
2021-02-10 22:00 3.01 606 2110 (2019) 162 (2000) 551 163 175 217 230 380 659 835 1270 2030
2021-02-10 21:00 3.06 630 2110 (2019) 162 (2000) 551 163 175 217 230 380 659 835 1270 2030
2021-02-10 20:00 3.04 620 2110 (2019) 162 (2000) 551 163 175 217 230 380 659 835 1270 2030
2021-02-10 19:00 3.05 625 2110 (2019) 162 (2000) 551 163 175 217 230 380 659 835 1270 2030
2021-02-10 18:00 3.07 635 2110 (2019) 162 (2000) 551 163 175 217 230 380 659 835 1270 2030
2021-02-10 17:00 3.07 635 2110 (2019) 162 (2000) 551 163 175 217 230 380 659 835 1270 2030
2021-02-10 16:00 3.02 611 2110 (2019) 162 (2000) 551 163 175 217 230 380 659 835 1270 2030
2021-02-10 15:00 3.10 650 2110 (2019) 162 (2000) 551 163 175 217 230 380 659 835 1270 2030
2021-02-10 14:00 3.11 655 2110 (2019) 162 (2000) 551 163 175 217 230 380 659 835 1270 2030
2021-02-10 13:00 3.13 665 2110 (2019) 162 (2000) 551 163 175 217 230 380 659 835 1270 2030
2021-02-10 12:00 3.13 665 2110 (2019) 162 (2000) 551 163 175 217 230 380 659 835 1270 2030
2021-02-10 11:00 3.09 645 2110 (2019) 162 (2000) 551 163 175 217 230 380 659 835 1270 2030
2021-02-10 10:00 3.15 675 2110 (2019) 162 (2000) 551 163 175 217 230 380 659 835 1270 2030
2021-02-10 09:00 3.11 655 2110 (2019) 162 (2000) 551 163 175 217 230 380 659 835 1270 2030
2021-02-10 08:00 3.12 660 2110 (2019) 162 (2000) 551 163 175 217 230 380 659 835 1270 2030
2021-02-10 07:00 3.11 655 2110 (2019) 162 (2000) 551 163 175 217 230 380 659 835 1270 2030
2021-02-10 06:00 3.13 665 2110 (2019) 162 (2000) 551 163 175 217 230 380 659 835 1270 2030
2021-02-10 05:00 3.14 670 2110 (2019) 162 (2000) 551 163 175 217 230 380 659 835 1270 2030
2021-02-10 04:00 3.13 665 2110 (2019) 162 (2000) 551 163 175 217 230 380 659 835 1270 2030
2021-02-10 03:00 3.16 680 2110 (2019) 162 (2000) 551 163 175 217 230 380 659 835 1270 2030
2021-02-10 02:00 3.15 675 2110 (2019) 162 (2000) 551 163 175 217 230 380 659 835 1270 2030
2021-02-10 01:00 3.16 680 2110 (2019) 162 (2000) 551 163 175 217 230 380 659 835 1270 2030
2021-02-10 00:00 3.15 675 2110 (2019) 162 (2000) 551 163 175 217 230 380 659 835 1270 2030
2021-02-09 23:00 3.17 685 2980 (2019) 161 (2000) 618 162 177 218 234 388 745 873 1450 2830
2021-02-09 22:00 3.17 685 2980 (2019) 161 (2000) 618 162 177 218 234 388 745 873 1450 2830
2021-02-09 21:00 3.18 690 2980 (2019) 161 (2000) 618 162 177 218 234 388 745 873 1450 2830
2021-02-09 20:00 3.18 690 2980 (2019) 161 (2000) 618 162 177 218 234 388 745 873 1450 2830
2021-02-09 19:00 3.19 695 2980 (2019) 161 (2000) 618 162 177 218 234 388 745 873 1450 2830
2021-02-09 18:00 3.17 685 2980 (2019) 161 (2000) 618 162 177 218 234 388 745 873 1450 2830
2021-02-09 17:00 3.18 690 2980 (2019) 161 (2000) 618 162 177 218 234 388 745 873 1450 2830
2021-02-09 16:00 3.19 695 2980 (2019) 161 (2000) 618 162 177 218 234 388 745 873 1450 2830
2021-02-09 15:00 3.21 706 2980 (2019) 161 (2000) 618 162 177 218 234 388 745 873 1450 2830
2021-02-09 14:00 3.19 695 2980 (2019) 161 (2000) 618 162 177 218 234 388 745 873 1450 2830
2021-02-09 13:00 3.18 690 2980 (2019) 161 (2000) 618 162 177 218 234 388 745 873 1450 2830
2021-02-09 12:00 3.19 695 2980 (2019) 161 (2000) 618 162 177 218 234 388 745 873 1450 2830
2021-02-09 11:00 3.19 695 2980 (2019) 161 (2000) 618 162 177 218 234 388 745 873 1450 2830
2021-02-09 10:00 3.20 701 2980 (2019) 161 (2000) 618 162 177 218 234 388 745 873 1450 2830
2021-02-09 09:00 3.24 722 2980 (2019) 161 (2000) 618 162 177 218 234 388 745 873 1450 2830
2021-02-09 08:00 3.19 695 2980 (2019) 161 (2000) 618 162 177 218 234 388 745 873 1450 2830
2021-02-09 07:00 3.21 706 2980 (2019) 161 (2000) 618 162 177 218 234 388 745 873 1450 2830
2021-02-09 06:00 3.20 701 2980 (2019) 161 (2000) 618 162 177 218 234 388 745 873 1450 2830
2021-02-09 05:00 3.24 722 2980 (2019) 161 (2000) 618 162 177 218 234 388 745 873 1450 2830
2021-02-09 04:00 3.21 706 2980 (2019) 161 (2000) 618 162 177 218 234 388 745 873 1450 2830
2021-02-09 03:00 3.27 738 2980 (2019) 161 (2000) 618 162 177 218 234 388 745 873 1450 2830
2021-02-09 02:00 3.26 733 2980 (2019) 161 (2000) 618 162 177 218 234 388 745 873 1450 2830
2021-02-09 01:00 3.25 727 2980 (2019) 161 (2000) 618 162 177 218 234 388 745 873 1450 2830
2021-02-09 00:00 3.27 738 2980 (2019) 161 (2000) 618 162 177 218 234 388 745 873 1450 2830
2021-02-08 23:00 3.27 738 6360 (2019) 162 (2000) 808 163 177 217 240 394 791 974 1680 5900
2021-02-08 22:00 3.28 743 6360 (2019) 162 (2000) 808 163 177 217 240 394 791 974 1680 5900
2021-02-08 21:00 3.24 722 6360 (2019) 162 (2000) 808 163 177 217 240 394 791 974 1680 5900
2021-02-08 20:00 3.29 749 6360 (2019) 162 (2000) 808 163 177 217 240 394 791 974 1680 5900
2021-02-08 19:00 3.29 749 6360 (2019) 162 (2000) 808 163 177 217 240 394 791 974 1680 5900
2021-02-08 18:00 3.27 738 6360 (2019) 162 (2000) 808 163 177 217 240 394 791 974 1680 5900
2021-02-08 17:00 3.28 743 6360 (2019) 162 (2000) 808 163 177 217 240 394 791 974 1680 5900
2021-02-08 16:00 3.29 749 6360 (2019) 162 (2000) 808 163 177 217 240 394 791 974 1680 5900
2021-02-08 15:00 3.29 749 6360 (2019) 162 (2000) 808 163 177 217 240 394 791 974 1680 5900
2021-02-08 14:00 3.33 771 6360 (2019) 162 (2000) 808 163 177 217 240 394 791 974 1680 5900
2021-02-08 13:00 3.36 788 6360 (2019) 162 (2000) 808 163 177 217 240 394 791 974 1680 5900
2021-02-08 12:00 3.34 777 6360 (2019) 162 (2000) 808 163 177 217 240 394 791 974 1680 5900
2021-02-08 11:00 3.31 760 6360 (2019) 162 (2000) 808 163 177 217 240 394 791 974 1680 5900
2021-02-08 10:00 3.37 794 6360 (2019) 162 (2000) 808 163 177 217 240 394 791 974 1680 5900
2021-02-08 09:00 3.32 766 6360 (2019) 162 (2000) 808 163 177 217 240 394 791 974 1680 5900
2021-02-08 08:00 3.36 788 6360 (2019) 162 (2000) 808 163 177 217 240 394 791 974 1680 5900
2021-02-08 07:00 3.36 788 6360 (2019) 162 (2000) 808 163 177 217 240 394 791 974 1680 5900
2021-02-08 06:00 3.32 766 6360 (2019) 162 (2000) 808 163 177 217 240 394 791 974 1680 5900
2021-02-08 05:00 3.34 777 6360 (2019) 162 (2000) 808 163 177 217 240 394 791 974 1680 5900
2021-02-08 04:00 3.36 788 6360 (2019) 162 (2000) 808 163 177 217 240 394 791 974 1680 5900
2021-02-08 03:00 3.35 782 6360 (2019) 162 (2000) 808 163 177 217 240 394 791 974 1680 5900
2021-02-08 02:00 3.36 788 6360 (2019) 162 (2000) 808 163 177 217 240 394 791 974 1680 5900
2021-02-08 01:00 3.35 782 6360 (2019) 162 (2000) 808 163 177 217 240 394 791 974 1680 5900
2021-02-08 00:00 3.39 805 6360 (2019) 162 (2000) 808 163 177 217 240 394 791 974 1680 5900
2021-02-07 23:00 3.34 777 2380 (2019) 161 (2000) 677 162 178 220 245 370 929 1290 2070 2360
2021-02-07 22:00 3.38 800 2380 (2019) 161 (2000) 677 162 178 220 245 370 929 1290 2070 2360
2021-02-07 21:00 3.39 805 2380 (2019) 161 (2000) 677 162 178 220 245 370 929 1290 2070 2360
2021-02-07 20:00 3.40 811 2380 (2019) 161 (2000) 677 162 178 220 245 370 929 1290 2070 2360
2021-02-07 19:00 3.41 817 2380 (2019) 161 (2000) 677 162 178 220 245 370 929 1290 2070 2360
2021-02-07 18:00 3.39 805 2380 (2019) 161 (2000) 677 162 178 220 245 370 929 1290 2070 2360
2021-02-07 17:00 3.45 841 2380 (2019) 161 (2000) 677 162 178 220 245 370 929 1290 2070 2360
2021-02-07 16:00 3.41 817 2380 (2019) 161 (2000) 677 162 178 220 245 370 929 1290 2070 2360
2021-02-07 15:00 3.43 829 2380 (2019) 161 (2000) 677 162 178 220 245 370 929 1290 2070 2360
2021-02-07 14:00 3.47 853 2380 (2019) 161 (2000) 677 162 178 220 245 370 929 1290 2070 2360
2021-02-07 13:00 3.43 829 2380 (2019) 161 (2000) 677 162 178 220 245 370 929 1290 2070 2360
2021-02-07 12:00 3.45 841 2380 (2019) 161 (2000) 677 162 178 220 245 370 929 1290 2070 2360
2021-02-07 10:00 3.49 865 2380 (2019) 161 (2000) 677 162 178 220 245 370 929 1290 2070 2360
2021-02-07 09:00 3.45 841 2380 (2019) 161 (2000) 677 162 178 220 245 370 929 1290 2070 2360
2021-02-07 08:00 3.47 853 2380 (2019) 161 (2000) 677 162 178 220 245 370 929 1290 2070 2360
2021-02-07 07:00 3.47 853 2380 (2019) 161 (2000) 677 162 178 220 245 370 929 1290 2070 2360
2021-02-07 06:00 3.49 865 2380 (2019) 161 (2000) 677 162 178 220 245 370 929 1290 2070 2360
2021-02-07 05:00 3.53 890 2380 (2019) 161 (2000) 677 162 178 220 245 370 929 1290 2070 2360
2021-02-07 04:00 3.51 877 2380 (2019) 161 (2000) 677 162 178 220 245 370 929 1290 2070 2360
2021-02-07 03:00 3.52 883 2380 (2019) 161 (2000) 677 162 178 220 245 370 929 1290 2070 2360
2021-02-07 02:00 3.54 896 2380 (2019) 161 (2000) 677 162 178 220 245 370 929 1290 2070 2360
2021-02-07 01:00 3.53 890 2380 (2019) 161 (2000) 677 162 178 220 245 370 929 1290 2070 2360
2021-02-07 00:00 3.55 902 2380 (2019) 161 (2000) 677 162 178 220 245 370 929 1290 2070 2360
2021-02-06 23:00 3.54 896 1670 (2020) 162 (2000) 571 164 180 220 247 386 754 896 1600 1670
2021-02-06 22:00 3.58 921 1670 (2020) 162 (2000) 571 164 180 220 247 386 754 896 1600 1670
2021-02-06 21:00 3.55 902 1670 (2020) 162 (2000) 571 164 180 220 247 386 754 896 1600 1670
2021-02-06 20:00 3.59 928 1670 (2020) 162 (2000) 571 164 180 220 247 386 754 896 1600 1670
2021-02-06 19:00 3.59 928 1670 (2020) 162 (2000) 571 164 180 220 247 386 754 896 1600 1670
2021-02-06 18:00 3.58 921 1670 (2020) 162 (2000) 571 164 180 220 247 386 754 896 1600 1670
2021-02-06 17:00 3.57 915 1670 (2020) 162 (2000) 571 164 180 220 247 386 754 896 1600 1670
2021-02-06 16:00 3.58 921 1670 (2020) 162 (2000) 571 164 180 220 247 386 754 896 1600 1670
2021-02-06 15:00 3.63 954 1670 (2020) 162 (2000) 571 164 180 220 247 386 754 896 1600 1670
2021-02-06 14:00 3.64 960 1670 (2020) 162 (2000) 571 164 180 220 247 386 754 896 1600 1670
2021-02-06 13:00 3.61 941 1670 (2020) 162 (2000) 571 164 180 220 247 386 754 896 1600 1670
2021-02-06 12:00 3.62 947 1670 (2020) 162 (2000) 571 164 180 220 247 386 754 896 1600 1670
2021-02-06 11:00 3.66 974 1670 (2020) 162 (2000) 571 164 180 220 247 386 754 896 1600 1670
2021-02-06 10:00 3.62 947 1670 (2020) 162 (2000) 571 164 180 220 247 386 754 896 1600 1670
2021-02-06 09:00 3.64 960 1670 (2020) 162 (2000) 571 164 180 220 247 386 754 896 1600 1670
2021-02-06 08:00 3.67 980 1670 (2020) 162 (2000) 571 164 180 220 247 386 754 896 1600 1670
2021-02-06 07:00 3.69 994 1670 (2020) 162 (2000) 571 164 180 220 247 386 754 896 1600 1670
2021-02-06 06:00 3.69 994 1670 (2020) 162 (2000) 571 164 180 220 247 386 754 896 1600 1670
2021-02-06 05:00 3.68 987 1670 (2020) 162 (2000) 571 164 180 220 247 386 754 896 1600 1670
2021-02-06 04:00 3.71 1010 1670 (2020) 162 (2000) 571 164 180 220 247 386 754 896 1600 1670
2021-02-06 03:00 3.70 1000 1670 (2020) 162 (2000) 571 164 180 220 247 386 754 896 1600 1670
2021-02-06 02:00 3.74 1030 1670 (2020) 162 (2000) 571 164 180 220 247 386 754 896 1600 1670
2021-02-06 01:00 3.75 1040 1670 (2020) 162 (2000) 571 164 180 220 247 386 754 896 1600 1670
2021-02-06 00:00 3.76 1040 1670 (2020) 162 (2000) 571 164 180 220 247 386 754 896 1600 1670
2021-02-05 23:00 3.76 1040 1550 (2012) 162 (2000) 487 164 181 224 253 327 669 787 1040 1500
2021-02-05 22:00 3.78 1060 1550 (2012) 162 (2000) 487 164 181 224 253 327 669 787 1040 1500
2021-02-05 21:00 3.79 1060 1550 (2012) 162 (2000) 487 164 181 224 253 327 669 787 1040 1500
2021-02-05 20:00 3.80 1070 1550 (2012) 162 (2000) 487 164 181 224 253 327 669 787 1040 1500
2021-02-05 19:00 3.76 1040 1550 (2012) 162 (2000) 487 164 181 224 253 327 669 787 1040 1500
2021-02-05 18:00 3.80 1070 1550 (2012) 162 (2000) 487 164 181 224 253 327 669 787 1040 1500
2021-02-05 17:00 3.80 1070 1550 (2012) 162 (2000) 487 164 181 224 253 327 669 787 1040 1500
2021-02-05 16:00 3.85 1110 1550 (2012) 162 (2000) 487 164 181 224 253 327 669 787 1040 1500
2021-02-05 15:00 3.84 1100 1550 (2012) 162 (2000) 487 164 181 224 253 327 669 787 1040 1500
2021-02-05 14:00 3.81 1080 1550 (2012) 162 (2000) 487 164 181 224 253 327 669 787 1040 1500
2021-02-05 13:00 3.81 1080 1550 (2012) 162 (2000) 487 164 181 224 253 327 669 787 1040 1500
2021-02-05 12:00 3.84 1100 1550 (2012) 162 (2000) 487 164 181 224 253 327 669 787 1040 1500
2021-02-05 11:00 3.84 1100 1550 (2012) 162 (2000) 487 164 181 224 253 327 669 787 1040 1500
2021-02-05 10:00 3.86 1110 1550 (2012) 162 (2000) 487 164 181 224 253 327 669 787 1040 1500
2021-02-05 09:00 3.83 1090 1550 (2012) 162 (2000) 487 164 181 224 253 327 669 787 1040 1500
2021-02-05 08:00 3.89 1140 1550 (2012) 162 (2000) 487 164 181 224 253 327 669 787 1040 1500
2021-02-05 07:00 3.88 1130 1550 (2012) 162 (2000) 487 164 181 224 253 327 669 787 1040 1500
2021-02-05 06:00 3.89 1140 1550 (2012) 162 (2000) 487 164 181 224 253 327 669 787 1040 1500
2021-02-05 05:00 3.92 1160 1550 (2012) 162 (2000) 487 164 181 224 253 327 669 787 1040 1500
2021-02-05 04:00 3.91 1150 1550 (2012) 162 (2000) 487 164 181 224 253 327 669 787 1040 1500
2021-02-05 03:00 3.92 1160 1550 (2012) 162 (2000) 487 164 181 224 253 327 669 787 1040 1500
2021-02-05 02:00 3.91 1150 1550 (2012) 162 (2000) 487 164 181 224 253 327 669 787 1040 1500
2021-02-05 01:00 3.94 1170 1550 (2012) 162 (2000) 487 164 181 224 253 327 669 787 1040 1500
2021-02-05 00:00 3.95 1180 1550 (2012) 162 (2000) 487 164 181 224 253 327 669 787 1040 1500
2021-02-04 23:00 3.97 1200 1150 (2002) 154 (2008) 445 155 166 197 225 370 660 733 803 1120
2021-02-04 22:00 3.96 1190 1150 (2002) 154 (2008) 445 155 166 197 225 370 660 733 803 1120
2021-02-04 21:00 4.00 1220 1150 (2002) 154 (2008) 445 155 166 197 225 370 660 733 803 1120
2021-02-04 20:00 3.98 1200 1150 (2002) 154 (2008) 445 155 166 197 225 370 660 733 803 1120
2021-02-04 19:00 3.99 1210 1150 (2002) 154 (2008) 445 155 166 197 225 370 660 733 803 1120
2021-02-04 18:00 4.00 1220 1150 (2002) 154 (2008) 445 155 166 197 225 370 660 733 803 1120
2021-02-04 17:00 4.00 1220 1150 (2002) 154 (2008) 445 155 166 197 225 370 660 733 803 1120
2021-02-04 16:00 4.05 1260 1150 (2002) 154 (2008) 445 155 166 197 225 370 660 733 803 1120
2021-02-04 15:00 4.03 1250 1150 (2002) 154 (2008) 445 155 166 197 225 370 660 733 803 1120
2021-02-04 14:00 4.05 1260 1150 (2002) 154 (2008) 445 155 166 197 225 370 660 733 803 1120
2021-02-04 13:00 4.07 1280 1150 (2002) 154 (2008) 445 155 166 197 225 370 660 733 803 1120
2021-02-04 12:00 4.05 1260 1150 (2002) 154 (2008) 445 155 166 197 225 370 660 733 803 1120
2021-02-04 11:00 4.09 1300 1150 (2002) 154 (2008) 445 155 166 197 225 370 660 733 803 1120
2021-02-04 10:00 4.06 1270 1150 (2002) 154 (2008) 445 155 166 197 225 370 660 733 803 1120
2021-02-04 09:00 4.07 1280 1150 (2002) 154 (2008) 445 155 166 197 225 370 660 733 803 1120
2021-02-04 08:00 4.08 1290 1150 (2002) 154 (2008) 445 155 166 197 225 370 660 733 803 1120
2021-02-04 07:00 4.09 1300 1150 (2002) 154 (2008) 445 155 166 197 225 370 660 733 803 1120
2021-02-04 06:00 4.12 1310 1150 (2002) 154 (2008) 445 155 166 197 225 370 660 733 803 1120
2021-02-04 05:00 4.10 1300 1150 (2002) 154 (2008) 445 155 166 197 225 370 660 733 803 1120
2021-02-04 04:00 4.13 1320 1150 (2002) 154 (2008) 445 155 166 197 225 370 660 733 803 1120
2021-02-04 03:00 4.14 1330 1150 (2002) 154 (2008) 445 155 166 197 225 370 660 733 803 1120
2021-02-04 02:00 4.16 1350 1150 (2002) 154 (2008) 445 155 166 197 225 370 660 733 803 1120
2021-02-04 01:00 4.19 1380 1150 (2002) 154 (2008) 445 155 166 197 225 370 660 733 803 1120
2021-02-04 00:00 4.19 1380 1150 (2002) 154 (2008) 445 155 166 197 225 370 660 733 803 1120
2021-02-03 23:00 4.24 1420 1500 (2002) 154 (2008) 472 155 167 199 220 440 571 713 920 1440
2021-02-03 22:00 4.22 1400 1500 (2002) 154 (2008) 472 155 167 199 220 440 571 713 920 1440
2021-02-03 21:00 4.25 1430 1500 (2002) 154 (2008) 472 155 167 199 220 440 571 713 920 1440
2021-02-03 20:00 4.26 1440 1500 (2002) 154 (2008) 472 155 167 199 220 440 571 713 920 1440
2021-02-03 19:00 4.28 1460 1500 (2002) 154 (2008) 472 155 167 199 220 440 571 713 920 1440
2021-02-03 18:00 4.28 1460 1500 (2002) 154 (2008) 472 155 167 199 220 440 571 713 920 1440
2021-02-03 17:00 4.30 1480 1500 (2002) 154 (2008) 472 155 167 199 220 440 571 713 920 1440
2021-02-03 16:00 4.32 1500 1500 (2002) 154 (2008) 472 155 167 199 220 440 571 713 920 1440
2021-02-03 15:00 4.38 1540 1500 (2002) 154 (2008) 472 155 167 199 220 440 571 713 920 1440
2021-02-03 14:00 4.33 1510 1500 (2002) 154 (2008) 472 155 167 199 220 440 571 713 920 1440
2021-02-03 13:00 4.40 1560 1500 (2002) 154 (2008) 472 155 167 199 220 440 571 713 920 1440
2021-02-03 12:00 4.38 1540 1500 (2002) 154 (2008) 472 155 167 199 220 440 571 713 920 1440
2021-02-03 11:00 4.41 1570 1500 (2002) 154 (2008) 472 155 167 199 220 440 571 713 920 1440
2021-02-03 10:00 4.45 1610 1500 (2002) 154 (2008) 472 155 167 199 220 440 571 713 920 1440
2021-02-03 09:00 4.46 1620 1500 (2002) 154 (2008) 472 155 167 199 220 440 571 713 920 1440
2021-02-03 08:00 4.47 1630 1500 (2002) 154 (2008) 472 155 167 199 220 440 571 713 920 1440
2021-02-03 07:00 4.50 1660 1500 (2002) 154 (2008) 472 155 167 199 220 440 571 713 920 1440
2021-02-03 06:00 4.50 1660 1500 (2002) 154 (2008) 472 155 167 199 220 440 571 713 920 1440
2021-02-03 05:00 4.52 1690 1500 (2002) 154 (2008) 472 155 167 199 220 440 571 713 920 1440
2021-02-03 04:00 4.54 1710 1500 (2002) 154 (2008) 472 155 167 199 220 440 571 713 920 1440
2021-02-03 03:00 4.56 1730 1500 (2002) 154 (2008) 472 155 167 199 220 440 571 713 920 1440
2021-02-03 02:00 4.59 1750 1500 (2002) 154 (2008) 472 155 167 199 220 440 571 713 920 1440
2021-02-03 01:00 4.63 1790 1500 (2002) 154 (2008) 472 155 167 199 220 440 571 713 920 1440
2021-02-03 00:00 4.64 1800 1500 (2002) 154 (2008) 472 155 167 199 220 440 571 713 920 1440
2021-02-02 23:00 4.67 1840 3350 (2002) 155 (2008) 591 156 169 204 219 465 560 729 1190 3140
2021-02-02 22:00 4.69 1860 3350 (2002) 155 (2008) 591 156 169 204 219 465 560 729 1190 3140
2021-02-02 21:00 4.71 1880 3350 (2002) 155 (2008) 591 156 169 204 219 465 560 729 1190 3140
2021-02-02 20:00 4.74 1920 3350 (2002) 155 (2008) 591 156 169 204 219 465 560 729 1190 3140
2021-02-02 19:00 4.75 1930 3350 (2002) 155 (2008) 591 156 169 204 219 465 560 729 1190 3140
2021-02-02 18:00 4.77 1950 3350 (2002) 155 (2008) 591 156 169 204 219 465 560 729 1190 3140
2021-02-02 17:00 4.81 1980 3350 (2002) 155 (2008) 591 156 169 204 219 465 560 729 1190 3140
2021-02-02 16:00 4.84 2020 3350 (2002) 155 (2008) 591 156 169 204 219 465 560 729 1190 3140
2021-02-02 15:00 4.87 2050 3350 (2002) 155 (2008) 591 156 169 204 219 465 560 729 1190 3140
2021-02-02 14:00 4.88 2060 3350 (2002) 155 (2008) 591 156 169 204 219 465 560 729 1190 3140
2021-02-02 13:00 4.91 2090 3350 (2002) 155 (2008) 591 156 169 204 219 465 560 729 1190 3140
2021-02-02 12:00 4.93 2120 3350 (2002) 155 (2008) 591 156 169 204 219 465 560 729 1190 3140
2021-02-02 11:00 4.96 2150 3350 (2002) 155 (2008) 591 156 169 204 219 465 560 729 1190 3140
2021-02-02 10:00 4.99 2180 3350 (2002) 155 (2008) 591 156 169 204 219 465 560 729 1190 3140
2021-02-02 09:00 5.00 2200 3350 (2002) 155 (2008) 591 156 169 204 219 465 560 729 1190 3140
2021-02-02 08:00 5.05 2240 3350 (2002) 155 (2008) 591 156 169 204 219 465 560 729 1190 3140
2021-02-02 07:00 5.08 2280 3350 (2002) 155 (2008) 591 156 169 204 219 465 560 729 1190 3140
2021-02-02 06:00 5.14 2350 3350 (2002) 155 (2008) 591 156 169 204 219 465 560 729 1190 3140
2021-02-02 05:00 5.16 2370 3350 (2002) 155 (2008) 591 156 169 204 219 465 560 729 1190 3140
2021-02-02 04:00 5.18 2400 3350 (2002) 155 (2008) 591 156 169 204 219 465 560 729 1190 3140
2021-02-02 03:00 5.22 2440 3350 (2002) 155 (2008) 591 156 169 204 219 465 560 729 1190 3140
2021-02-02 02:00 5.29 2500 3350 (2002) 155 (2008) 591 156 169 204 219 465 560 729 1190 3140
2021-02-02 01:00 5.30 2510 3350 (2002) 155 (2008) 591 156 169 204 219 465 560 729 1190 3140
2021-02-02 00:00 5.36 2570 3350 (2002) 155 (2008) 591 156 169 204 219 465 560 729 1190 3140
2021-02-01 23:00 5.38 2580 6690 (2002) 159 (2008) 810 160 171 203 213 483 654 825 1790 6220
2021-02-01 22:00 5.44 2640 6690 (2002) 159 (2008) 810 160 171 203 213 483 654 825 1790 6220
2021-02-01 21:00 5.49 2680 6690 (2002) 159 (2008) 810 160 171 203 213 483 654 825 1790 6220
2021-02-01 20:00 5.52 2710 6690 (2002) 159 (2008) 810 160 171 203 213 483 654 825 1790 6220
2021-02-01 19:00 5.59 2780 6690 (2002) 159 (2008) 810 160 171 203 213 483 654 825 1790 6220
2021-02-01 18:00 5.62 2810 6690 (2002) 159 (2008) 810 160 171 203 213 483 654 825 1790 6220
2021-02-01 17:00 5.69 2880 6690 (2002) 159 (2008) 810 160 171 203 213 483 654 825 1790 6220
2021-02-01 16:00 5.74 2920 6690 (2002) 159 (2008) 810 160 171 203 213 483 654 825 1790 6220
2021-02-01 15:00 5.76 2940 6690 (2002) 159 (2008) 810 160 171 203 213 483 654 825 1790 6220
2021-02-01 14:00 5.85 3030 6690 (2002) 159 (2008) 810 160 171 203 213 483 654 825 1790 6220
2021-02-01 13:00 5.97 3130 6690 (2002) 159 (2008) 810 160 171 203 213 483 654 825 1790 6220
2021-02-01 12:00 6.02 3180 6690 (2002) 159 (2008) 810 160 171 203 213 483 654 825 1790 6220
2021-02-01 11:00 6.03 3190 6690 (2002) 159 (2008) 810 160 171 203 213 483 654 825 1790 6220
2021-02-01 10:00 6.13 3280 6690 (2002) 159 (2008) 810 160 171 203 213 483 654 825 1790 6220
2021-02-01 09:00 6.23 3370 6690 (2002) 159 (2008) 810 160 171 203 213 483 654 825 1790 6220
2021-02-01 08:00 6.33 3470 6690 (2002) 159 (2008) 810 160 171 203 213 483 654 825 1790 6220
2021-02-01 07:00 6.43 3560 6690 (2002) 159 (2008) 810 160 171 203 213 483 654 825 1790 6220
2021-02-01 06:00 6.52 3650 6690 (2002) 159 (2008) 810 160 171 203 213 483 654 825 1790 6220
2021-02-01 05:00 6.66 3780 6690 (2002) 159 (2008) 810 160 171 203 213 483 654 825 1790 6220
2021-02-01 04:00 6.76 3880 6690 (2002) 159 (2008) 810 160 171 203 213 483 654 825 1790 6220
2021-02-01 03:00 6.89 4020 6690 (2002) 159 (2008) 810 160 171 203 213 483 654 825 1790 6220
2021-02-01 02:00 7.04 4160 6690 (2002) 159 (2008) 810 160 171 203 213 483 654 825 1790 6220
2021-02-01 01:00 7.15 4280 6690 (2002) 159 (2008) 810 160 171 203 213 483 654 825 1790 6220
2021-02-01 00:00 7.27 4400 6690 (2002) 159 (2008) 810 160 171 203 213 483 654 825 1790 6220

A total of 733 rows are displayed for years 2000 through 2020.